createdAt,value
2022-11-06T00:01:29.005Z,7.20
2022-11-06T00:03:56.474Z,7.26
2022-11-06T00:06:41.997Z,7.31
2022-11-06T00:09:10.922Z,7.24
2022-11-06T00:11:39.487Z,7.23
2022-11-06T00:14:08.684Z,7.17
2022-11-06T00:16:38.627Z,7.12
2022-11-06T00:19:06.976Z,7.11
2022-11-06T00:21:35.016Z,7.13
2022-11-06T00:24:05.306Z,7.15
2022-11-06T00:26:34.280Z,7.07
2022-11-06T00:29:02.766Z,7.06
2022-11-06T00:31:35.351Z,6.98
2022-11-06T00:34:03.708Z,6.96
2022-11-06T00:36:31.707Z,6.93
2022-11-06T00:39:00.462Z,6.94
2022-11-06T00:41:28.206Z,6.91
2022-11-06T00:43:58.055Z,6.91
2022-11-06T00:46:26.662Z,6.88
2022-11-06T00:48:56.310Z,6.96
2022-11-06T00:51:26.124Z,6.88
2022-11-06T00:53:55.475Z,6.82
2022-11-06T00:56:23.210Z,6.86
2022-11-06T00:58:51.184Z,6.82
2022-11-06T01:01:20.800Z,6.86
2022-11-06T01:03:52.103Z,6.72
2022-11-06T01:06:22.659Z,6.78
2022-11-06T01:08:50.844Z,6.69
2022-11-06T01:11:23.235Z,6.66
2022-11-06T01:13:52.198Z,6.56
2022-11-06T01:16:20.653Z,6.66
2022-11-06T01:18:48.799Z,6.60
2022-11-06T01:21:18.436Z,6.59
2022-11-06T01:23:47.683Z,6.59
2022-11-06T01:26:24.636Z,6.61
2022-11-06T01:29:04.302Z,6.58
2022-11-06T01:31:33.713Z,6.50
2022-11-06T01:34:02.637Z,6.53
2022-11-06T01:36:30.968Z,6.52
2022-11-06T01:39:04.012Z,6.49
2022-11-06T01:41:33.759Z,6.51
2022-11-06T01:44:06.179Z,6.51
2022-11-06T01:46:37.805Z,6.46
2022-11-06T01:49:07.979Z,6.42
2022-11-06T01:51:39.322Z,6.50
2022-11-06T01:54:09.564Z,6.51
2022-11-06T01:56:38.285Z,6.40
2022-11-06T01:59:07.115Z,6.37
2022-11-06T02:01:34.854Z,6.38
2022-11-06T02:04:21.883Z,6.32
2022-11-06T02:06:49.782Z,6.35
2022-11-06T02:09:19.456Z,6.24
2022-11-06T02:12:03.318Z,6.22
2022-11-06T02:14:39.316Z,6.15
2022-11-06T02:17:13.095Z,6.20
2022-11-06T02:19:56.750Z,6.22
2022-11-06T02:22:40.154Z,6.26
2022-11-06T02:25:20.392Z,6.10
2022-11-06T02:27:55.041Z,6.21
2022-11-06T02:30:22.531Z,6.14
2022-11-06T02:32:56.865Z,6.13
2022-11-06T02:35:29.869Z,6.18
2022-11-06T02:38:01.060Z,6.20
2022-11-06T02:40:33.174Z,5.54
2022-11-06T02:43:05.162Z,6.02
2022-11-06T02:45:37.139Z,6.12
2022-11-06T02:48:06.798Z,6.01
2022-11-06T02:50:40.593Z,6.05
2022-11-06T02:53:10.720Z,6.03
2022-11-06T02:55:41.611Z,5.98
2022-11-06T02:58:14.942Z,6.05
2022-11-06T03:00:45.809Z,5.95
2022-11-06T03:03:18.688Z,5.99
2022-11-06T03:05:51.921Z,5.86
2022-11-06T03:08:25.773Z,5.87
2022-11-06T03:10:59.933Z,5.95
2022-11-06T03:13:38.867Z,5.87
2022-11-06T03:16:18.356Z,5.92
2022-11-06T03:18:53.604Z,5.84
2022-11-06T03:21:26.915Z,5.87
2022-11-06T03:23:58.433Z,5.84
2022-11-06T03:26:31.550Z,5.78
2022-11-06T03:29:10.332Z,5.87
2022-11-06T03:31:40.791Z,5.83
2022-11-06T03:34:13.009Z,5.78
2022-11-06T03:36:45.235Z,5.76
2022-11-06T03:39:16.623Z,5.61
2022-11-06T03:41:49.043Z,5.75
2022-11-06T03:44:20.470Z,5.70
2022-11-06T03:46:54.551Z,5.66
2022-11-06T03:49:28.875Z,5.74
2022-11-06T03:51:59.609Z,5.63
2022-11-06T03:54:31.106Z,5.66
2022-11-06T03:57:04.399Z,5.66
2022-11-06T03:59:39.749Z,5.71
2022-11-06T04:02:08.837Z,5.66
2022-11-06T04:04:39.804Z,5.63
2022-11-06T04:07:10.577Z,5.61
2022-11-06T04:10:00.276Z,5.57
2022-11-06T04:13:00.727Z,5.62
2022-11-06T04:15:34.594Z,5.55
2022-11-06T04:18:02.168Z,5.52
2022-11-06T04:20:56.356Z,5.52
2022-11-06T04:23:37.695Z,5.50
2022-11-06T04:26:26.514Z,5.54
2022-11-06T04:29:03.750Z,5.47
2022-11-06T04:31:38.620Z,5.47
2022-11-06T04:34:15.050Z,5.58
2022-11-06T04:36:49.651Z,5.44
2022-11-06T04:39:23.504Z,5.43
2022-11-06T04:41:59.071Z,5.37
2022-11-06T04:44:32.534Z,5.48
2022-11-06T04:47:04.508Z,5.43
2022-11-06T04:49:34.788Z,5.44
2022-11-06T04:52:05.346Z,5.42
2022-11-06T04:54:33.416Z,5.40
2022-11-06T04:57:01.644Z,5.33
2022-11-06T04:59:31.095Z,5.43
2022-11-06T05:01:58.564Z,5.34
2022-11-06T05:04:27.367Z,5.40
2022-11-06T05:06:54.691Z,5.34
2022-11-06T05:09:22.119Z,5.35
2022-11-06T05:11:49.740Z,5.34
2022-11-06T05:14:17.174Z,5.33
2022-11-06T05:16:44.731Z,5.29
2022-11-06T05:19:12.415Z,5.30
2022-11-06T05:21:58.648Z,5.33
2022-11-06T05:24:26.097Z,5.28
2022-11-06T05:26:59.071Z,5.31
2022-11-06T05:29:26.935Z,5.31
2022-11-06T05:31:54.513Z,5.32
2022-11-06T05:34:22.013Z,5.31
2022-11-06T05:36:50.783Z,5.34
2022-11-06T05:39:18.190Z,5.32
2022-11-06T05:41:45.622Z,5.32
2022-11-06T05:44:13.087Z,5.22
2022-11-06T05:46:48.763Z,5.25
2022-11-06T05:49:17.172Z,4.74
2022-11-06T05:51:44.619Z,5.21
2022-11-06T05:54:13.562Z,5.27
2022-11-06T05:56:40.999Z,5.23
2022-11-06T05:59:08.479Z,5.18
2022-11-06T06:01:36.142Z,5.31
2022-11-06T06:04:03.668Z,5.16
2022-11-06T06:06:31.256Z,5.09
2022-11-06T06:08:58.766Z,5.15
2022-11-06T06:11:27.570Z,5.22
2022-11-06T06:13:54.867Z,5.30
2022-11-06T06:16:22.419Z,5.30
2022-11-06T06:18:50.940Z,5.10
2022-11-06T06:21:18.858Z,5.25
2022-11-06T06:23:46.775Z,5.26
2022-11-06T06:26:14.239Z,5.13
2022-11-06T06:28:43.258Z,5.32
2022-11-06T06:31:11.767Z,5.30
2022-11-06T06:33:39.336Z,5.26
2022-11-06T06:36:07.753Z,5.40
2022-11-06T06:38:35.215Z,5.10
2022-11-06T06:41:03.461Z,5.29
2022-11-06T06:43:31.123Z,5.22
2022-11-06T06:46:00.499Z,5.18
2022-11-06T06:48:28.741Z,5.36
2022-11-06T06:50:57.720Z,5.33
2022-11-06T06:53:25.752Z,4.81
2022-11-06T06:55:53.332Z,5.30
2022-11-06T06:58:21.531Z,5.25
2022-11-06T07:00:49.291Z,5.32
2022-11-06T07:03:18.131Z,5.36
2022-11-06T07:05:46.715Z,5.38
2022-11-06T07:08:14.839Z,4.78
2022-11-06T07:10:42.683Z,5.33
2022-11-06T07:13:10.573Z,5.45
2022-11-06T07:15:38.187Z,5.47
2022-11-06T07:18:07.093Z,4.92
2022-11-06T07:20:36.461Z,5.27
2022-11-06T07:23:07.943Z,5.34
2022-11-06T07:25:36.031Z,5.36
2022-11-06T07:28:04.411Z,5.38
2022-11-06T07:30:32.496Z,4.50
2022-11-06T07:33:01.584Z,4.29
2022-11-06T07:35:29.124Z,5.06
2022-11-06T07:37:57.931Z,5.10
2022-11-06T07:40:25.278Z,5.01
2022-11-06T07:42:52.575Z,5.22
2022-11-06T07:45:19.869Z,5.15
2022-11-06T07:47:47.338Z,5.34
2022-11-06T07:50:14.773Z,5.37
2022-11-06T07:52:42.247Z,5.36
2022-11-06T07:55:11.338Z,4.99
2022-11-06T07:57:38.791Z,4.81
2022-11-06T08:00:07.840Z,4.98
2022-11-06T08:02:35.328Z,5.05
2022-11-06T08:05:02.782Z,5.36
2022-11-06T08:07:30.235Z,4.80
2022-11-06T08:09:57.670Z,4.76
2022-11-06T08:12:26.451Z,5.03
2022-11-06T08:14:53.767Z,5.07
2022-11-06T08:17:21.618Z,4.84
2022-11-06T08:19:49.062Z,4.55
2022-11-06T08:22:16.627Z,4.79
2022-11-06T08:24:44.041Z,5.17
2022-11-06T08:27:11.527Z,4.51
2022-11-06T08:29:41.821Z,4.87
2022-11-06T08:32:09.720Z,4.35
2022-11-06T08:34:37.161Z,5.04
2022-11-06T08:37:04.594Z,4.17
2022-11-06T08:39:32.047Z,5.30
2022-11-06T08:41:59.478Z,4.68
2022-11-06T08:44:26.911Z,5.14
2022-11-06T08:46:55.680Z,4.63
2022-11-06T08:49:23.111Z,5.07
2022-11-06T08:51:50.578Z,4.90
2022-11-06T08:54:18.034Z,4.92
2022-11-06T08:56:45.459Z,4.95
2022-11-06T08:59:13.073Z,4.16
2022-11-06T09:01:40.589Z,4.91
2022-11-06T09:04:09.453Z,4.89
2022-11-06T09:06:36.996Z,4.30
2022-11-06T09:09:04.652Z,4.43
2022-11-06T09:11:33.052Z,4.78
2022-11-06T09:14:00.489Z,4.78
2022-11-06T09:16:27.931Z,5.10
2022-11-06T09:18:56.135Z,4.72
2022-11-06T09:21:25.378Z,5.32
2022-11-06T09:23:52.869Z,5.18
2022-11-06T09:26:20.506Z,5.01
2022-11-06T09:28:48.026Z,5.34
2022-11-06T09:31:15.439Z,5.47
2022-11-06T09:33:43.406Z,5.26
2022-11-06T09:36:11.077Z,5.16
2022-11-06T09:38:39.920Z,5.28
2022-11-06T09:41:07.410Z,5.11
2022-11-06T09:44:05.116Z,5.16
2022-11-06T09:46:36.748Z,5.08
2022-11-06T09:49:11.803Z,5.37
2022-11-06T09:51:42.944Z,5.15
2022-11-06T09:54:17.394Z,5.37
2022-11-06T09:56:49.040Z,5.51
2022-11-06T09:59:19.802Z,5.44
2022-11-06T10:01:50.991Z,5.53
2022-11-06T10:04:32.064Z,5.42
2022-11-06T10:06:59.519Z,5.81
2022-11-06T10:09:28.635Z,5.84
2022-11-06T10:12:08.890Z,5.43
2022-11-06T10:14:49.597Z,5.68
2022-11-06T10:17:32.391Z,5.89
2022-11-06T10:20:07.372Z,5.77
2022-11-06T10:22:39.814Z,5.75
2022-11-06T10:25:23.114Z,5.69
2022-11-06T10:28:02.857Z,5.76
2022-11-06T10:30:41.960Z,5.73
2022-11-06T10:33:35.389Z,5.65
2022-11-06T10:36:06.080Z,5.80
2022-11-06T10:38:37.005Z,5.90
2022-11-06T10:41:05.979Z,5.80
2022-11-06T10:43:36.640Z,5.87
2022-11-06T10:46:13.063Z,5.96
2022-11-06T10:48:46.874Z,5.94
2022-11-06T10:51:32.232Z,5.98
2022-11-06T10:54:15.018Z,5.77
2022-11-06T10:56:58.412Z,6.16
2022-11-06T10:59:26.106Z,6.24
2022-11-06T11:01:53.729Z,6.19
2022-11-06T11:04:21.424Z,6.20
2022-11-06T11:06:48.880Z,6.24
2022-11-06T11:09:31.934Z,6.17
2022-11-06T11:12:01.555Z,6.28
2022-11-06T11:14:30.688Z,6.16
2022-11-06T11:17:01.147Z,6.36
2022-11-06T11:19:36.019Z,6.20
2022-11-06T11:22:06.064Z,6.07
2022-11-06T11:24:33.603Z,6.22
2022-11-06T11:27:05.186Z,6.31
2022-11-06T11:29:35.224Z,6.09
2022-11-06T11:32:06.082Z,6.26
2022-11-06T11:34:36.718Z,6.17
2022-11-06T11:37:06.121Z,6.10
2022-11-06T11:39:35.312Z,6.37
2022-11-06T11:42:27.464Z,6.39
2022-11-06T11:45:22.387Z,6.09
2022-11-06T11:47:51.259Z,6.15
2022-11-06T11:50:26.004Z,6.36
2022-11-06T11:52:57.754Z,6.39
2022-11-06T11:55:28.237Z,6.43
2022-11-06T11:58:00.139Z,6.53
2022-11-06T12:00:29.837Z,6.29
2022-11-06T12:03:02.462Z,6.29
2022-11-06T12:05:34.470Z,6.38
2022-11-06T12:08:02.814Z,6.56
2022-11-06T12:10:33.336Z,6.38
2022-11-06T12:13:05.146Z,6.40
2022-11-06T12:15:40.550Z,6.53
2022-11-06T12:18:14.125Z,6.66
2022-11-06T12:20:44.922Z,6.71
2022-11-06T12:23:17.262Z,6.63
2022-11-06T12:25:48.029Z,6.74
2022-11-06T12:28:19.982Z,6.77
2022-11-06T12:30:54.412Z,6.77
2022-11-06T12:33:45.493Z,6.86
2022-11-06T12:36:14.984Z,6.89
2022-11-06T12:38:49.254Z,6.67
2022-11-06T12:41:24.457Z,6.58
2022-11-06T12:43:53.734Z,6.70
2022-11-06T12:46:28.678Z,6.82
2022-11-06T12:49:06.318Z,6.64
2022-11-06T12:51:48.239Z,6.83
2022-11-06T12:54:32.870Z,6.87
2022-11-06T12:57:10.234Z,6.79
2022-11-06T12:59:50.214Z,6.89
2022-11-06T13:02:29.797Z,7.02
2022-11-06T13:05:03.773Z,7.00
2022-11-06T13:07:41.108Z,6.94
2022-11-06T13:10:26.377Z,6.91
2022-11-06T13:13:16.175Z,6.86
2022-11-06T13:15:53.158Z,6.93
2022-11-06T13:18:25.868Z,6.78
2022-11-06T13:20:58.507Z,6.79
2022-11-06T13:23:30.203Z,6.93
2022-11-06T13:26:03.836Z,7.00
2022-11-06T13:28:36.344Z,6.83
2022-11-06T13:31:08.566Z,6.86
2022-11-06T13:33:40.784Z,6.76
2022-11-06T13:36:08.927Z,6.83
2022-11-06T13:38:40.519Z,6.93
2022-11-06T13:41:14.458Z,6.88
2022-11-06T13:43:45.908Z,7.04
2022-11-06T13:46:25.635Z,6.88
2022-11-06T13:49:05.551Z,6.80
2022-11-06T13:51:42.318Z,6.92
2022-11-06T13:54:21.470Z,6.97
2022-11-06T13:57:07.137Z,6.94
2022-11-06T13:59:47.813Z,6.72
2022-11-06T14:02:36.324Z,6.84
2022-11-06T14:05:33.569Z,6.90
2022-11-06T14:08:07.202Z,6.81
2022-11-06T14:10:37.840Z,6.80
2022-11-06T14:13:08.608Z,6.94
2022-11-06T14:15:39.555Z,6.66
2022-11-06T14:18:21.498Z,6.76
2022-11-06T14:20:48.973Z,6.69
2022-11-06T14:23:47.815Z,6.54
2022-11-06T14:26:41.488Z,6.51
2022-11-06T14:29:55.343Z,6.53
2022-11-06T14:32:42.422Z,6.59
2022-11-06T14:35:32.286Z,6.72
2022-11-06T14:38:17.388Z,6.61
2022-11-06T14:40:45.828Z,6.46
2022-11-06T14:43:20.075Z,6.39
2022-11-06T14:45:52.523Z,6.41
2022-11-06T14:48:27.915Z,6.41
2022-11-06T14:50:56.452Z,6.46
2022-11-06T14:53:29.614Z,6.62
2022-11-06T14:56:00.727Z,6.68
2022-11-06T14:58:33.128Z,6.89
2022-11-06T15:01:12.321Z,6.31
2022-11-06T15:03:49.654Z,6.67
2022-11-06T15:06:39.998Z,6.56
2022-11-06T15:09:12.478Z,6.68
2022-11-06T15:11:55.574Z,6.52
2022-11-06T15:14:57.119Z,6.45
2022-11-06T15:17:27.831Z,6.91
2022-11-06T15:20:02.373Z,6.81
2022-11-06T15:22:36.124Z,6.72
2022-11-06T15:25:18.358Z,6.44
2022-11-06T15:27:52.221Z,6.66
2022-11-06T15:30:21.755Z,6.37
2022-11-06T15:32:52.996Z,6.41
2022-11-06T15:35:24.133Z,6.49
2022-11-06T15:37:53.715Z,6.50
2022-11-06T15:40:28.559Z,6.70
2022-11-06T15:42:56.887Z,6.77
2022-11-06T15:45:28.029Z,6.87
2022-11-06T15:47:57.963Z,6.96
2022-11-06T15:50:28.048Z,6.98
2022-11-06T15:52:56.211Z,6.94
2022-11-06T15:55:29.591Z,6.93
2022-11-06T15:58:06.990Z,6.72
2022-11-06T16:00:37.826Z,6.94
2022-11-06T16:03:06.861Z,6.95
2022-11-06T16:05:37.638Z,6.81
2022-11-06T16:08:06.785Z,6.86
2022-11-06T16:10:36.887Z,6.93
2022-11-06T16:13:05.162Z,6.65
2022-11-06T16:15:55.691Z,6.76
2022-11-06T16:18:28.112Z,6.53
2022-11-06T16:20:59.247Z,6.78
2022-11-06T16:23:38.552Z,6.76
2022-11-06T16:26:09.550Z,6.87
2022-11-06T16:28:37.617Z,6.83
2022-11-06T16:31:14.513Z,6.87
2022-11-06T16:33:42.395Z,6.86
2022-11-06T16:36:11.830Z,6.75
2022-11-06T16:38:44.571Z,6.79
2022-11-06T16:41:33.596Z,6.80
2022-11-06T16:44:31.029Z,6.50
2022-11-06T16:47:15.098Z,5.85
2022-11-06T16:49:46.594Z,6.44
2022-11-06T16:52:26.953Z,6.75
2022-11-06T16:54:58.351Z,6.79
2022-11-06T16:57:28.710Z,6.66
2022-11-06T17:00:07.039Z,6.75
2022-11-06T17:02:38.471Z,6.67
2022-11-06T17:05:12.004Z,6.75
2022-11-06T17:07:40.814Z,6.71
2022-11-06T17:10:39.561Z,6.72
2022-11-06T17:13:16.137Z,6.47
2022-11-06T17:15:45.110Z,6.66
2022-11-06T17:18:18.014Z,6.70
2022-11-06T17:20:48.903Z,6.70
2022-11-06T17:23:17.298Z,6.68
2022-11-06T17:25:47.359Z,6.63
2022-11-06T17:28:14.779Z,6.69
2022-11-06T17:30:42.223Z,6.71
2022-11-06T17:33:09.679Z,6.66
2022-11-06T17:35:38.812Z,6.46
2022-11-06T17:38:07.522Z,5.69
2022-11-06T17:40:35.611Z,6.46
2022-11-06T17:43:03.067Z,6.61
2022-11-06T17:45:30.579Z,6.65
2022-11-06T17:47:58.084Z,6.59
2022-11-06T17:50:25.638Z,6.67
2022-11-06T17:52:54.468Z,6.59
2022-11-06T17:55:22.371Z,6.63
2022-11-06T17:57:49.828Z,6.64
2022-11-06T18:00:27.848Z,6.64
2022-11-06T18:03:02.245Z,6.67
2022-11-06T18:05:36.248Z,6.64
2022-11-06T18:08:12.244Z,6.69
2022-11-06T18:10:51.998Z,6.29
2022-11-06T18:13:28.573Z,6.43
2022-11-06T18:16:06.738Z,6.58
2022-11-06T18:18:43.092Z,6.46
2022-11-06T18:21:26.114Z,6.56
2022-11-06T18:24:11.967Z,6.61
2022-11-06T18:26:45.788Z,6.41
2022-11-06T18:29:16.756Z,6.23
2022-11-06T18:31:52.406Z,6.51
2022-11-06T18:34:24.446Z,6.53
2022-11-06T18:37:01.569Z,6.57
2022-11-06T18:39:30.859Z,6.38
2022-11-06T18:42:10.138Z,6.13
2022-11-06T18:44:41.260Z,6.49
2022-11-06T18:47:15.629Z,6.46
2022-11-06T18:49:47.263Z,6.40
2022-11-06T18:52:32.446Z,6.23
2022-11-06T18:55:08.365Z,5.58
2022-11-06T18:57:39.020Z,5.67
2022-11-06T19:00:10.689Z,5.75
2022-11-06T19:02:38.624Z,6.05
2022-11-06T19:05:07.543Z,6.10
2022-11-06T19:07:46.451Z,6.41
2022-11-06T19:10:18.423Z,6.04
2022-11-06T19:12:48.303Z,6.18
2022-11-06T19:15:18.751Z,6.33
2022-11-06T19:17:58.884Z,6.20
2022-11-06T19:20:29.322Z,5.95
2022-11-06T19:22:58.402Z,6.13
2022-11-06T19:25:39.746Z,6.36
2022-11-06T19:28:17.168Z,6.46
2022-11-06T19:30:47.138Z,6.37
2022-11-06T19:33:18.475Z,6.10
2022-11-06T19:35:48.084Z,6.33
2022-11-06T19:38:15.813Z,5.92
2022-11-06T19:40:56.557Z,6.27
2022-11-06T19:43:25.610Z,6.08
2022-11-06T19:45:56.468Z,5.84
2022-11-06T19:48:24.750Z,6.29
2022-11-06T19:51:00.112Z,6.31
2022-11-06T19:53:36.112Z,6.46
2022-11-06T19:56:06.221Z,6.51
2022-11-06T19:58:33.663Z,6.37
2022-11-06T20:01:06.213Z,6.18
2022-11-06T20:03:33.687Z,6.29
2022-11-06T20:06:06.493Z,6.55
2022-11-06T20:08:35.759Z,6.56
2022-11-06T20:11:03.751Z,6.58
2022-11-06T20:13:36.480Z,6.22
2022-11-06T20:16:05.080Z,5.61
2022-11-06T20:18:34.875Z,5.80
2022-11-06T20:21:02.715Z,6.00
2022-11-06T20:23:30.611Z,6.29
2022-11-06T20:25:59.315Z,6.42
2022-11-06T20:28:27.644Z,6.53
2022-11-06T20:30:57.101Z,6.37
2022-11-06T20:33:25.080Z,6.47
2022-11-06T20:35:52.495Z,6.52
2022-11-06T20:38:20.679Z,6.49
2022-11-06T20:40:48.136Z,6.43
2022-11-06T20:43:16.572Z,6.44
2022-11-06T20:45:44.522Z,6.41
2022-11-06T20:48:13.762Z,6.55
2022-11-06T20:50:41.650Z,6.60
2022-11-06T20:53:09.829Z,6.60
2022-11-06T20:55:38.533Z,6.63
2022-11-06T20:58:07.270Z,6.60
2022-11-06T21:00:35.000Z,6.45
2022-11-06T21:03:02.530Z,6.58
2022-11-06T21:05:31.367Z,6.26
2022-11-06T21:07:58.650Z,6.37
2022-11-06T21:10:26.094Z,6.29
2022-11-06T21:12:53.520Z,6.43
2022-11-06T21:15:20.943Z,6.41
2022-11-06T21:17:48.394Z,6.48
2022-11-06T21:20:22.447Z,6.13
2022-11-06T21:22:51.625Z,6.15
2022-11-06T21:25:18.930Z,6.51
2022-11-06T21:27:46.220Z,6.45
2022-11-06T21:30:13.740Z,5.80
2022-11-06T21:32:41.151Z,6.03
2022-11-06T21:35:09.476Z,6.22
2022-11-06T21:37:37.064Z,6.57
2022-11-06T21:40:07.118Z,6.37
2022-11-06T21:42:34.601Z,5.99
2022-11-06T21:45:02.014Z,6.08
2022-11-06T21:47:29.456Z,5.94
2022-11-06T21:49:56.879Z,6.29
2022-11-06T21:52:41.998Z,6.30
2022-11-06T21:55:37.538Z,6.27
2022-11-06T21:58:05.139Z,6.49
2022-11-06T22:00:32.631Z,6.47
2022-11-06T22:03:00.104Z,6.65
2022-11-06T22:05:27.637Z,6.52
2022-11-06T22:07:55.063Z,6.46
2022-11-06T22:10:23.863Z,6.66
2022-11-06T22:12:51.154Z,6.72
2022-11-06T22:15:18.618Z,6.70
2022-11-06T22:17:46.074Z,6.65
2022-11-06T22:20:13.474Z,6.71
2022-11-06T22:22:40.907Z,6.71
2022-11-06T22:25:08.959Z,6.74
2022-11-06T22:27:40.884Z,6.75
2022-11-06T22:30:09.954Z,6.70
2022-11-06T22:32:37.247Z,6.72
2022-11-06T22:35:04.747Z,6.74
2022-11-06T22:37:32.158Z,6.71
2022-11-06T22:39:59.697Z,6.77
2022-11-06T22:42:27.459Z,6.81
2022-11-06T22:44:57.379Z,6.82
2022-11-06T22:47:25.150Z,6.82
2022-11-06T22:49:53.283Z,6.81
2022-11-06T22:52:21.190Z,6.81
2022-11-06T22:54:48.879Z,6.84
2022-11-06T22:57:16.506Z,6.84
2022-11-06T22:59:43.927Z,6.79
2022-11-06T23:02:12.837Z,6.81
2022-11-06T23:04:40.528Z,6.77
2022-11-06T23:07:07.958Z,6.85
2022-11-06T23:09:35.379Z,6.82
2022-11-06T23:12:02.802Z,6.79
2022-11-06T23:14:31.207Z,6.82
2022-11-06T23:16:58.897Z,6.43
2022-11-06T23:19:30.057Z,6.10
2022-11-06T23:22:11.603Z,6.02
2022-11-06T23:24:39.298Z,5.91
2022-11-06T23:27:06.889Z,6.03
2022-11-06T23:29:34.308Z,6.32
2022-11-06T23:32:01.720Z,6.38
2022-11-06T23:34:30.512Z,6.04
2022-11-06T23:36:57.875Z,6.10
2022-11-06T23:39:25.563Z,6.22
2022-11-06T23:41:52.991Z,6.29
2022-11-06T23:44:38.048Z,6.38
2022-11-06T23:47:05.567Z,6.80
2022-11-06T23:49:34.395Z,6.80
2022-11-06T23:52:01.822Z,6.84
2022-11-06T23:54:29.274Z,6.88
2022-11-06T23:56:56.710Z,6.61
2022-11-06T23:59:24.463Z,6.63
